Time;durP1;ratioP1;P1;durP2;ratioP2;P2;SDS_P1;SDS_P2;PMS_P1;PMS_P2;Temp;Humidity;BMP_temperature;BMP_pressure;BME280_temperature;BME280_humidity;BME280_pressure;Samples;Min_cycle;Max_cycle;Signal;HPM_P1;HPM_P2
2023/01/20 00:01:10;;;;;;;18.77;9.93;;;-0.40;99.90;;;;;;5059984;28;20031;-79
2023/01/20 00:03:38;;;;;;;19.05;10.38;;;-0.40;99.90;;;;;;5039773;28;20037;-78
2023/01/20 00:06:04;;;;;;;18.50;10.25;;;-0.40;99.90;;;;;;5070878;28;20137;-78
2023/01/20 00:08:30;;;;;;;19.45;10.55;;;-0.40;99.90;;;;;;5052740;28;20082;-78
2023/01/20 00:10:56;;;;;;;21.48;11.50;;;-0.40;99.90;;;;;;5054699;28;20028;-77
2023/01/20 00:13:22;;;;;;;19.20;10.77;;;-0.40;99.90;;;;;;5060730;28;20024;-79
2023/01/20 00:15:47;;;;;;;19.08;10.93;;;-0.40;99.90;;;;;;5039487;28;20059;-76
2023/01/20 00:18:14;;;;;;;19.67;10.18;;;-0.40;99.90;;;;;;5071222;28;20029;-77
2023/01/20 00:20:40;;;;;;;20.35;11.27;;;-0.40;99.90;;;;;;5053896;28;20043;-78
2023/01/20 00:23:06;;;;;;;21.20;11.13;;;-0.40;99.90;;;;;;5073020;28;20037;-79
2023/01/20 00:25:35;;;;;;;18.23;11.00;;;-0.40;99.90;;;;;;5053804;28;20029;-79
2023/01/20 00:28:02;;;;;;;17.60;10.65;;;-0.40;99.90;;;;;;5056532;28;20033;-78
2023/01/20 00:30:28;;;;;;;17.55;10.50;;;-0.40;99.90;;;;;;5056745;28;20121;-79
2023/01/20 00:32:54;;;;;;;20.17;10.95;;;-0.40;99.90;;;;;;5056919;28;20033;-79
2023/01/20 00:35:20;;;;;;;20.55;10.98;;;-0.40;99.90;;;;;;5070783;28;20039;-79
2023/01/20 00:37:46;;;;;;;20.42;11.05;;;-0.40;99.90;;;;;;5055293;28;20100;-78
2023/01/20 00:40:12;;;;;;;19.55;10.52;;;-0.30;99.90;;;;;;5073296;28;20273;-79
2023/01/20 00:42:37;;;;;;;22.08;13.10;;;-0.40;99.90;;;;;;5072611;28;20028;-78
2023/01/20 00:45:04;;;;;;;19.80;10.60;;;-0.40;99.90;;;;;;5064284;28;20043;-78
2023/01/20 00:47:30;;;;;;;19.67;10.93;;;-0.30;99.90;;;;;;5073498;28;20032;-79
2023/01/20 00:49:56;;;;;;;18.63;11.18;;;-0.30;99.90;;;;;;5066359;28;20029;-79
2023/01/20 00:52:22;;;;;;;22.27;11.63;;;-0.30;99.90;;;;;;5047684;28;20028;-79
2023/01/20 00:54:48;;;;;;;20.25;10.82;;;-0.30;99.90;;;;;;5057389;28;20040;-78
2023/01/20 00:57:14;;;;;;;19.55;9.95;;;-0.30;99.90;;;;;;5057372;28;20518;-78
2023/01/20 00:59:40;;;;;;;17.67;10.10;;;-0.30;99.90;;;;;;5045899;28;20111;-78
2023/01/20 01:02:06;;;;;;;17.27;10.38;;;-0.30;99.90;;;;;;5051382;28;20028;-78
2023/01/20 01:04:33;;;;;;;18.02;10.25;;;-0.30;99.90;;;;;;5069040;28;20024;-79
2023/01/20 01:06:59;;;;;;;20.38;10.98;;;-0.30;99.90;;;;;;5039527;28;20033;-78
2023/01/20 01:09:25;;;;;;;19.58;10.77;;;-0.30;99.90;;;;;;5068427;28;20028;-78
2023/01/20 01:11:51;;;;;;;19.13;10.57;;;-0.30;99.90;;;;;;5076675;28;20028;-79
2023/01/20 01:14:17;;;;;;;18.48;10.05;;;-0.30;99.90;;;;;;5051083;28;20459;-77
2023/01/20 01:16:43;;;;;;;21.17;11.32;;;-0.30;99.90;;;;;;5070720;28;20036;-78
2023/01/20 01:19:09;;;;;;;23.67;12.23;;;-0.30;99.90;;;;;;5071128;28;20040;-78
2023/01/20 01:21:35;;;;;;;22.40;12.48;;;-0.30;99.90;;;;;;5046150;28;20037;-78
2023/01/20 01:24:01;;;;;;;20.80;12.35;;;-0.30;99.90;;;;;;5044965;28;20439;-77
2023/01/20 01:26:27;;;;;;;23.38;11.75;;;-0.30;99.90;;;;;;5051965;28;20025;-77
2023/01/20 01:28:53;;;;;;;18.67;11.52;;;-0.40;99.90;;;;;;5029161;28;20029;-78
2023/01/20 01:31:20;;;;;;;20.58;12.10;;;-0.30;99.90;;;;;;5039649;28;20041;-78
2023/01/20 01:33:47;;;;;;;20.88;11.27;;;-0.40;99.90;;;;;;5022580;28;20032;-78
2023/01/20 01:36:16;;;;;;;22.15;12.45;;;-0.30;99.90;;;;;;5069531;28;20040;-77
2023/01/20 01:38:43;;;;;;;24.55;11.93;;;-0.40;99.90;;;;;;5063504;28;20421;-77
2023/01/20 01:41:11;;;;;;;25.85;13.52;;;-0.30;99.90;;;;;;5044586;28;20044;-77
2023/01/20 01:43:38;;;;;;;25.60;12.90;;;-0.30;99.90;;;;;;5034047;28;20556;-77
2023/01/20 01:46:06;;;;;;;21.40;11.65;;;-0.30;99.90;;;;;;5069880;28;20040;-77
2023/01/20 01:48:39;;;;;;;24.38;12.27;;;-0.30;99.90;;;;;;5071884;28;20753;-77
2023/01/20 01:51:21;;;;;;;24.05;11.38;;;-0.30;99.90;;;;;;5066397;28;20104;-78
2023/01/20 01:53:56;;;;;;;22.17;12.40;;;-0.30;99.90;;;;;;5074365;28;20096;-78
2023/01/20 01:56:24;;;;;;;21.50;12.10;;;-0.30;99.90;;;;;;5044951;28;20036;-78
2023/01/20 01:58:54;;;;;;;22.88;11.68;;;-0.30;99.90;;;;;;5064455;28;20291;-77
2023/01/20 02:01:20;;;;;;;25.05;12.18;;;-0.30;99.90;;;;;;5041175;28;20106;-78
2023/01/20 02:03:58;;;;;;;24.33;12.00;;;-0.30;99.90;;;;;;5070360;28;20503;-78
2023/01/20 02:06:28;;;;;;;21.67;11.98;;;-0.30;99.90;;;;;;5054502;28;20044;-78
2023/01/20 02:08:54;;;;;;;23.10;12.32;;;-0.30;99.90;;;;;;5074796;28;20100;-78
2023/01/20 02:11:20;;;;;;;28.60;12.77;;;-0.30;99.90;;;;;;5076839;28;20064;-78
2023/01/20 02:13:46;;;;;;;23.33;12.38;;;-0.30;99.90;;;;;;5075829;28;20025;-78
2023/01/20 02:16:34;;;;;;;23.15;11.43;;;-0.30;99.90;;;;;;5066659;28;20048;-78
2023/01/20 02:19:29;;;;;;;24.77;12.25;;;-0.30;99.90;;;;;;5068533;28;20033;-79
2023/01/20 02:22:19;;;;;;;24.63;12.02;;;-0.30;99.90;;;;;;5074122;28;20025;-78
2023/01/20 02:25:06;;;;;;;23.00;11.13;;;-0.30;99.90;;;;;;5073023;28;20025;-78
2023/01/20 02:27:35;;;;;;;23.85;12.82;;;-0.30;99.90;;;;;;5074367;28;20042;-78
2023/01/20 02:30:29;;;;;;;26.02;13.32;;;-0.30;99.90;;;;;;5071055;28;20078;-77
2023/01/20 02:33:18;;;;;;;24.75;12.30;;;-0.30;99.90;;;;;;5045743;28;20040;-77
2023/01/20 02:36:05;;;;;;;26.73;13.27;;;-0.30;99.90;;;;;;5045779;28;20075;-77
2023/01/20 02:38:54;;;;;;;22.23;11.57;;;-0.30;99.90;;;;;;5055427;28;20032;-78
2023/01/20 02:41:30;;;;;;;22.73;11.75;;;-0.30;99.90;;;;;;5054982;28;20113;-78
2023/01/20 02:44:09;;;;;;;22.75;11.35;;;-0.40;99.90;;;;;;5067009;28;20028;-78
2023/01/20 02:46:47;;;;;;;27.27;12.60;;;-0.30;99.90;;;;;;5072702;28;20070;-78
2023/01/20 02:49:23;;;;;;;27.35;13.38;;;-0.30;99.90;;;;;;5070371;28;20484;-77
2023/01/20 02:51:58;;;;;;;26.30;13.48;;;-0.40;99.90;;;;;;5054806;28;20607;-78
2023/01/20 02:54:27;;;;;;;;;;;-0.40;99.90;;;;;;5059816;28;20508;-78
2023/01/20 02:56:55;;;;;;;24.63;11.93;;;-0.40;99.90;;;;;;5054514;28;19943;-78
2023/01/20 02:59:25;;;;;;;26.98;13.10;;;-0.40;99.90;;;;;;5021911;28;20037;-78
2023/01/20 03:02:03;;;;;;;22.17;12.20;;;-0.40;99.90;;;;;;5050026;28;20036;-78
2023/01/20 03:04:36;;;;;;;25.17;11.50;;;-0.30;99.90;;;;;;5043305;28;20320;-79
2023/01/20 03:07:03;;;;;;;20.90;11.70;;;-0.30;99.90;;;;;;5058526;28;20037;-79
2023/01/20 03:09:33;;;;;;;23.73;12.10;;;-0.30;99.90;;;;;;5054434;28;20410;-78
2023/01/20 03:12:08;;;;;;;23.13;12.10;;;-0.30;99.90;;;;;;5037222;28;20029;-78
2023/01/20 03:14:34;;;;;;;23.65;12.35;;;-0.40;99.90;;;;;;5073492;28;20024;-77
2023/01/20 03:17:01;;;;;;;22.30;12.10;;;-0.30;99.90;;;;;;5055617;28;20101;-78
2023/01/20 03:19:27;;;;;;;24.55;12.05;;;-0.30;99.90;;;;;;5054668;28;20032;-77
2023/01/20 03:21:56;;;;;;;21.10;11.73;;;-0.30;99.90;;;;;;5070227;28;20182;-77
2023/01/20 03:24:24;;;;;;;25.83;12.20;;;-0.30;99.90;;;;;;5040219;28;20581;-77
2023/01/20 03:26:51;;;;;;;21.65;11.70;;;-0.30;99.90;;;;;;5061357;28;20703;-78
2023/01/20 03:29:17;;;;;;;24.33;12.57;;;-0.30;99.90;;;;;;5054228;28;20025;-77
2023/01/20 03:31:54;;;;;;;24.48;12.52;;;-0.30;99.90;;;;;;5048946;28;20489;-79
2023/01/20 03:34:23;;;;;;;22.65;12.13;;;-0.30;99.90;;;;;;5070691;28;20405;-78
2023/01/20 03:36:51;;;;;;;28.10;12.75;;;-0.30;99.90;;;;;;5068146;28;20409;-77
2023/01/20 03:39:18;;;;;;;24.30;11.93;;;-0.30;99.90;;;;;;5066575;28;20431;-77
2023/01/20 03:42:06;;;;;;;23.73;11.73;;;-0.30;99.90;;;;;;5067864;28;20097;-77
2023/01/20 03:44:47;;;;;;;23.08;11.23;;;-0.20;99.90;;;;;;5067039;28;20035;-78
2023/01/20 03:47:16;;;;;;;20.17;10.68;;;-0.20;99.90;;;;;;5068674;28;20416;-79
2023/01/20 03:50:03;;;;;;;22.73;12.00;;;-0.20;99.90;;;;;;5070264;28;20024;-78
2023/01/20 03:52:37;;;;;;;22.90;12.00;;;-0.20;99.90;;;;;;5036184;28;20022;-79
2023/01/20 03:55:16;;;;;;;18.75;10.90;;;-0.20;99.90;;;;;;5069790;28;20104;-78
2023/01/20 03:58:03;;;;;;;19.98;11.93;;;-0.20;99.90;;;;;;5035772;28;20041;-79
2023/01/20 04:00:33;;;;;;;21.88;13.07;;;-0.20;99.90;;;;;;5039844;28;20040;-76
2023/01/20 04:03:06;;;;;;;24.52;13.32;;;-0.20;99.90;;;;;;5070557;28;20123;-77
2023/01/20 04:05:32;;;;;;;26.20;13.30;;;-0.20;99.90;;;;;;5055223;28;20040;-77
2023/01/20 04:08:04;;;;;;;25.80;14.05;;;-0.20;99.90;;;;;;5017198;28;20094;-78
2023/01/20 04:10:34;;;;;;;25.48;13.55;;;-0.20;99.90;;;;;;5055031;28;20039;-79
2023/01/20 04:12:59;;;;;;;24.08;13.30;;;-0.20;99.90;;;;;;5052826;28;20142;-79
2023/01/20 04:15:27;;;;;;;23.40;12.65;;;-0.20;99.90;;;;;;5032775;28;20665;-78
2023/01/20 04:17:53;;;;;;;19.20;10.82;;;-0.30;99.90;;;;;;5052761;28;20121;-78
2023/01/20 04:20:19;;;;;;;24.63;12.93;;;-0.30;99.90;;;;;;5049916;28;20036;-78
2023/01/20 04:22:54;;;;;;;21.17;12.35;;;-0.30;99.90;;;;;;5036426;28;20532;-78
2023/01/20 04:25:29;;;;;;;21.85;12.70;;;-0.30;99.90;;;;;;5071839;28;20043;-78
2023/01/20 04:27:55;;;;;;;21.40;11.88;;;-0.30;99.90;;;;;;5053955;28;20036;-78
2023/01/20 04:30:21;;;;;;;21.23;12.20;;;-0.30;99.90;;;;;;5042950;28;20105;-77
2023/01/20 04:32:46;;;;;;;20.92;12.50;;;-0.30;99.90;;;;;;5036743;28;20028;-78
2023/01/20 04:35:14;;;;;;;19.23;11.90;;;-0.30;99.90;;;;;;5070579;28;20109;-79
2023/01/20 04:37:41;;;;;;;19.90;11.95;;;-0.30;99.90;;;;;;5069874;28;20028;-77
2023/01/20 04:40:07;;;;;;;19.83;11.13;;;-0.40;99.90;;;;;;5070487;28;20032;-78
2023/01/20 04:42:33;;;;;;;25.05;11.82;;;-0.30;99.90;;;;;;5069804;28;20066;-76
2023/01/20 04:44:59;;;;;;;22.73;12.07;;;-0.40;99.90;;;;;;5024539;28;20041;-78
2023/01/20 04:47:32;;;;;;;22.63;11.70;;;-0.40;99.90;;;;;;5071176;28;20580;-77
2023/01/20 04:49:58;;;;;;;18.48;11.25;;;-0.40;99.90;;;;;;5053212;28;20025;-77
2023/01/20 04:52:24;;;;;;;21.90;11.68;;;-0.40;99.90;;;;;;5069443;28;20033;-77
2023/01/20 04:54:51;;;;;;;19.33;11.43;;;-0.40;99.90;;;;;;5069348;28;20439;-77
2023/01/20 04:57:17;;;;;;;21.40;11.93;;;-0.40;99.90;;;;;;5072446;28;20028;-78
2023/01/20 04:59:43;;;;;;;19.15;11.00;;;-0.40;99.90;;;;;;5054417;28;20036;-78
2023/01/20 05:02:09;;;;;;;21.33;11.77;;;-0.40;99.90;;;;;;5071569;28;20029;-77
2023/01/20 05:04:36;;;;;;;19.95;10.88;;;-0.40;99.90;;;;;;5035545;28;20029;-78
2023/01/20 05:07:02;;;;;;;19.63;11.15;;;-0.40;99.90;;;;;;5054190;28;20572;-78
2023/01/20 05:09:28;;;;;;;24.10;12.38;;;-0.40;99.90;;;;;;5071464;28;20025;-78
2023/01/20 05:11:55;;;;;;;18.23;10.80;;;-0.40;99.90;;;;;;5060472;28;20057;-78
2023/01/20 05:14:20;;;;;;;18.63;11.23;;;-0.40;99.90;;;;;;5053144;28;20025;-78
2023/01/20 05:16:46;;;;;;;20.38;11.32;;;-0.50;99.90;;;;;;5052474;28;20519;-77
2023/01/20 05:19:13;;;;;;;19.85;11.20;;;-0.50;99.90;;;;;;5070046;28;20060;-77
2023/01/20 05:21:39;;;;;;;19.63;11.15;;;-0.50;99.90;;;;;;5046088;28;20071;-79
2023/01/20 05:24:05;;;;;;;17.80;10.52;;;-0.50;99.90;;;;;;5053082;28;20052;-77
2023/01/20 05:26:31;;;;;;;21.83;10.90;;;-0.50;99.90;;;;;;5056155;28;20074;-78
2023/01/20 05:28:57;;;;;;;21.08;11.15;;;-0.50;99.90;;;;;;5073639;28;20056;-78
2023/01/20 05:31:23;;;;;;;21.17;11.50;;;-0.60;99.90;;;;;;5075660;28;20044;-78
2023/01/20 05:33:49;;;;;;;21.10;11.57;;;-0.60;99.90;;;;;;5077516;28;20028;-79
2023/01/20 05:36:15;;;;;;;18.60;11.05;;;-0.60;99.90;;;;;;5076954;28;20036;-79
2023/01/20 05:38:41;;;;;;;23.48;11.35;;;-0.60;99.90;;;;;;5060344;28;20056;-78
2023/01/20 05:41:08;;;;;;;19.48;10.98;;;-0.70;99.90;;;;;;5038981;28;20378;-79
2023/01/20 05:43:35;;;;;;;19.27;10.90;;;-0.70;99.90;;;;;;5077266;28;20112;-78
2023/01/20 05:46:01;;;;;;;18.63;11.13;;;-0.70;99.90;;;;;;5060208;28;20451;-78
2023/01/20 05:48:27;;;;;;;20.52;11.43;;;-0.70;99.90;;;;;;5068686;28;20052;-78
2023/01/20 05:50:53;;;;;;;19.60;11.57;;;-0.70;99.90;;;;;;5075631;28;20107;-77
2023/01/20 05:53:19;;;;;;;19.58;11.70;;;-0.70;99.90;;;;;;5031144;28;20541;-79
2023/01/20 05:55:44;;;;;;;20.42;11.93;;;-0.70;99.90;;;;;;5042829;28;20021;-80
2023/01/20 05:58:11;;;;;;;22.67;11.23;;;-0.80;99.90;;;;;;5030674;28;20127;-78
2023/01/20 06:00:37;;;;;;;19.15;10.73;;;-0.80;99.90;;;;;;5042437;28;20037;-79
2023/01/20 06:03:03;;;;;;;18.75;10.73;;;-0.80;99.90;;;;;;5072438;28;20032;-77
2023/01/20 06:05:29;;;;;;;17.65;10.40;;;-0.80;99.90;;;;;;5070589;28;20075;-78
2023/01/20 06:07:56;;;;;;;20.33;10.93;;;-0.80;99.90;;;;;;5072485;28;20060;-77
2023/01/20 06:10:29;;;;;;;21.52;12.45;;;-0.80;99.90;;;;;;5054804;28;20056;-79
2023/01/20 06:12:56;;;;;;;21.85;11.93;;;-0.80;99.90;;;;;;5067722;28;20025;-78
2023/01/20 06:15:22;;;;;;;24.75;11.82;;;-0.80;99.90;;;;;;5072753;28;20029;-79
2023/01/20 06:17:53;;;;;;;22.65;12.38;;;-0.80;99.90;;;;;;5073129;28;20097;-77
2023/01/20 06:20:20;;;;;;;18.60;10.90;;;-0.90;99.90;;;;;;5037057;28;20032;-77
2023/01/20 06:22:46;;;;;;;20.27;11.32;;;-0.90;99.90;;;;;;5055146;28;20086;-79
2023/01/20 06:25:12;;;;;;;20.52;11.43;;;-1.00;99.90;;;;;;5056423;28;20036;-79
2023/01/20 06:27:37;;;;;;;21.52;11.90;;;-1.00;99.90;;;;;;5054952;28;20404;-80
2023/01/20 06:30:05;;;;;;;19.75;11.95;;;-1.00;99.90;;;;;;5071547;28;20051;-77
2023/01/20 06:32:31;;;;;;;20.58;11.65;;;-1.00;99.90;;;;;;5037596;28;20147;-79
2023/01/20 06:34:57;;;;;;;23.50;12.90;;;-1.00;99.90;;;;;;5053755;28;20123;-80
2023/01/20 06:37:23;;;;;;;23.08;12.90;;;-1.00;99.90;;;;;;5071178;28;20054;-80
2023/01/20 06:39:49;;;;;;;20.23;11.80;;;-1.00;99.90;;;;;;5072265;28;20755;-79
2023/01/20 06:42:15;;;;;;;21.27;11.40;;;-1.00;99.90;;;;;;5065910;28;20640;-79
2023/01/20 06:44:41;;;;;;;22.85;12.07;;;-1.00;99.90;;;;;;5046775;28;20571;-79
2023/01/20 06:47:07;;;;;;;24.25;12.75;;;-0.90;99.90;;;;;;5068549;28;20062;-76
2023/01/20 06:49:33;;;;;;;20.60;11.85;;;-0.90;99.90;;;;;;5074851;28;20609;-79
2023/01/20 06:52:00;;;;;;;21.25;11.73;;;-0.90;99.90;;;;;;5074835;28;20432;-79
2023/01/20 06:54:26;;;;;;;20.30;11.85;;;-0.90;99.90;;;;;;5075395;28;20043;-79
2023/01/20 06:56:52;;;;;;;21.42;11.75;;;-0.90;99.90;;;;;;5068837;28;20501;-78
2023/01/20 06:59:18;;;;;;;20.10;11.68;;;-0.90;99.90;;;;;;5074741;28;20050;-79
2023/01/20 07:01:44;;;;;;;24.67;12.63;;;-0.90;99.90;;;;;;5073777;28;20169;-79
2023/01/20 07:04:13;;;;;;;23.08;12.57;;;-0.90;99.90;;;;;;5078209;28;20075;-79
2023/01/20 07:06:40;;;;;;;20.95;12.35;;;-0.90;99.90;;;;;;5055106;28;20500;-79
2023/01/20 07:09:09;;;;;;;20.85;12.38;;;-0.90;99.90;;;;;;5074281;28;20032;-79
2023/01/20 07:11:36;;;;;;;21.95;11.70;;;-0.90;99.90;;;;;;5074644;28;20032;-79
2023/01/20 07:14:05;;;;;;;21.40;12.13;;;-0.90;99.90;;;;;;5051042;28;20043;-78
2023/01/20 07:16:32;;;;;;;21.13;11.82;;;-0.90;99.90;;;;;;5075490;28;20028;-79
2023/01/20 07:18:59;;;;;;;25.23;12.90;;;-0.90;99.90;;;;;;5074401;28;20051;-78
2023/01/20 07:21:25;;;;;;;18.35;10.18;;;-0.90;99.90;;;;;;5074489;28;20038;-79
2023/01/20 07:23:51;;;;;;;18.83;11.18;;;-0.90;99.90;;;;;;5073262;28;20033;-79
2023/01/20 07:26:19;;;;;;;17.92;10.48;;;-0.80;99.90;;;;;;5062192;28;20515;-79
2023/01/20 07:28:46;;;;;;;18.15;9.65;;;-0.80;99.90;;;;;;5074639;28;20141;-79
2023/01/20 07:31:18;;;;;;;14.98;8.73;;;-0.80;99.90;;;;;;5072079;28;20032;-79
2023/01/20 07:33:44;;;;;;;15.27;9.30;;;-0.80;99.90;;;;;;5071970;28;20016;-79
2023/01/20 07:36:12;;;;;;;15.60;9.85;;;-0.80;99.90;;;;;;5036197;28;20516;-80
2023/01/20 07:38:38;;;;;;;17.25;9.50;;;-0.70;99.90;;;;;;5059159;28;20543;-79
2023/01/20 07:41:09;;;;;;;20.27;9.95;;;-0.70;99.90;;;;;;5048648;28;20029;-79
2023/01/20 07:43:35;;;;;;;18.08;9.68;;;-0.70;99.90;;;;;;5070353;28;20032;-77
2023/01/20 07:46:03;;;;;;;18.10;9.73;;;-0.60;99.90;;;;;;5069754;28;20029;-80
2023/01/20 07:48:32;;;;;;;17.08;9.70;;;-0.60;99.90;;;;;;5070305;28;20052;-79
2023/01/20 07:51:06;;;;;;;16.67;8.95;;;-0.60;99.90;;;;;;5071413;28;20113;-78
2023/01/20 07:53:46;;;;;;;19.55;9.82;;;-0.60;99.90;;;;;;5068948;28;20033;-79
2023/01/20 07:56:22;;;;;;;13.88;8.52;;;-0.60;99.90;;;;;;5062568;28;20040;-80
2023/01/20 07:58:49;;;;;;;17.75;9.93;;;-0.60;99.90;;;;;;5053902;28;20119;-80
2023/01/20 08:01:35;;;;;;;18.15;10.13;;;-0.50;99.90;;;;;;5054860;28;20024;-78
2023/01/20 08:04:01;;;;;;;17.00;9.75;;;-0.50;99.90;;;;;;5056457;28;20101;-79
2023/01/20 08:06:28;;;;;;;16.70;9.43;;;-0.50;99.90;;;;;;5071455;28;20028;-77
2023/01/20 08:08:55;;;;;;;17.75;10.13;;;-0.50;99.90;;;;;;5074703;28;20127;-79
2023/01/20 08:11:22;;;;;;;18.30;9.70;;;-0.50;99.90;;;;;;5075037;28;20037;-78
2023/01/20 08:13:48;;;;;;;15.90;8.82;;;-0.40;99.90;;;;;;5055459;28;20033;-78
2023/01/20 08:16:16;;;;;;;16.48;9.27;;;-0.40;99.90;;;;;;5052395;28;20024;-78
2023/01/20 08:18:43;;;;;;;15.98;9.10;;;-0.40;99.90;;;;;;5056215;28;20024;-78
2023/01/20 08:21:35;;;;;;;16.67;9.38;;;-0.40;99.90;;;;;;5074905;28;20386;-78
2023/01/20 08:24:04;;;;;;;17.30;10.55;;;-0.30;99.90;;;;;;5064130;28;20036;-77
2023/01/20 08:26:31;;;;;;;18.52;9.90;;;-0.30;99.90;;;;;;5053323;28;20059;-77
2023/01/20 08:29:06;;;;;;;16.02;9.63;;;-0.30;99.90;;;;;;5072944;28;20037;-79
2023/01/20 08:31:33;;;;;;;20.58;9.45;;;-0.30;99.90;;;;;;5038250;28;20102;-79
2023/01/20 08:33:59;;;;;;;18.58;10.63;;;-0.20;99.90;;;;;;5073594;28;20039;-78
2023/01/20 08:36:28;;;;;;;18.90;10.13;;;-0.20;99.90;;;;;;5072552;28;20036;-79
2023/01/20 08:38:56;;;;;;;19.08;9.73;;;-0.20;99.90;;;;;;5056889;28;20055;-79
2023/01/20 08:41:26;;;;;;;17.20;10.10;;;-0.20;99.90;;;;;;5065461;28;20040;-78
2023/01/20 08:43:52;;;;;;;16.42;10.10;;;-0.20;99.90;;;;;;5059674;28;20039;-77
2023/01/20 08:46:20;;;;;;;16.25;9.82;;;-0.20;99.90;;;;;;5056303;28;20024;-78
2023/01/20 08:48:48;;;;;;;17.70;9.82;;;-0.10;99.90;;;;;;5073171;28;20040;-78
2023/01/20 08:51:21;;;;;;;16.90;9.50;;;-0.10;99.90;;;;;;5073707;28;20025;-79
2023/01/20 08:53:48;;;;;;;17.13;9.50;;;0.00;99.90;;;;;;5073732;28;20036;-79
2023/01/20 08:56:15;;;;;;;16.98;9.98;;;0.00;99.90;;;;;;5056619;28;20037;-78
2023/01/20 08:58:41;;;;;;;14.52;8.98;;;0.10;99.90;;;;;;5040009;28;20039;-78
2023/01/20 09:01:12;;;;;;;13.85;8.82;;;0.10;99.90;;;;;;5060733;28;20119;-79
2023/01/20 09:03:38;;;;;;;15.32;9.20;;;0.20;99.90;;;;;;5072683;28;20032;-79
2023/01/20 09:06:06;;;;;;;15.07;8.65;;;0.20;99.90;;;;;;5057518;28;20085;-77
2023/01/20 09:08:32;;;;;;;12.80;8.20;;;0.20;99.90;;;;;;5055909;28;20116;-79
2023/01/20 09:11:19;;;;;;;17.58;9.00;;;0.30;99.90;;;;;;5052429;28;20603;-78
2023/01/20 09:13:46;;;;;;;13.80;8.23;;;0.30;99.90;;;;;;5072419;28;20028;-78
2023/01/20 09:16:14;;;;;;;14.00;7.95;;;0.30;99.90;;;;;;5024799;28;20033;-78
2023/01/20 09:18:41;;;;;;;17.77;9.32;;;0.40;99.90;;;;;;5073141;28;20428;-78
2023/01/20 09:21:08;;;;;;;16.63;9.07;;;0.40;99.90;;;;;;5064702;28;20639;-79
2023/01/20 09:23:37;;;;;;;18.83;9.50;;;0.50;99.90;;;;;;5067052;28;20040;-79
2023/01/20 09:26:05;;;;;;;15.48;8.75;;;0.50;99.90;;;;;;5063742;28;20078;-78
2023/01/20 09:28:32;;;;;;;13.63;8.05;;;0.50;99.90;;;;;;5060268;28;20083;-79
2023/01/20 09:31:07;;;;;;;16.83;9.13;;;0.50;99.90;;;;;;5052718;28;20039;-79
2023/01/20 09:33:37;;;;;;;14.70;8.30;;;0.60;99.90;;;;;;5039110;28;20079;-79
2023/01/20 09:36:05;;;;;;;13.18;7.90;;;0.60;99.90;;;;;;5047123;28;20432;-79
2023/01/20 09:45:05;;;;;;;16.30;8.93;;;0.70;99.90;;;;;;5074216;28;20028;-80
2023/01/20 09:47:36;;;;;;;13.82;7.38;;;0.70;99.90;;;;;;4995106;28;20093;-79
2023/01/20 09:53:06;;;;;;;12.10;7.70;;;0.80;99.90;;;;;;5059954;28;20055;-79
2023/01/20 09:55:51;;;;;;;15.00;7.85;;;0.80;99.90;;;;;;5073206;28;20618;-79
2023/01/20 09:58:31;;;;;;;14.38;6.95;;;0.80;99.90;;;;;;5053856;28;20047;-79
2023/01/20 10:01:23;;;;;;;16.60;7.78;;;0.80;99.90;;;;;;5065271;28;20116;-79
2023/01/20 10:04:10;;;;;;;15.90;8.18;;;0.80;99.90;;;;;;5056373;28;20032;-79
2023/01/20 10:06:53;;;;;;;14.77;7.53;;;0.90;99.90;;;;;;5069961;28;20028;-80
2023/01/20 10:09:37;;;;;;;11.38;7.18;;;0.90;99.90;;;;;;5031908;28;20029;-80
2023/01/20 10:12:17;;;;;;;13.75;7.32;;;0.90;99.90;;;;;;5055101;28;20112;-79
2023/01/20 10:15:08;;;;;;;15.07;8.25;;;0.90;99.90;;;;;;5072887;28;20040;-79
2023/01/20 10:17:41;;;;;;;13.40;7.03;;;1.00;99.90;;;;;;5075781;28;20521;-78
2023/01/20 10:20:14;;;;;;;11.68;6.90;;;1.10;99.90;;;;;;5074186;28;20535;-79
2023/01/20 10:22:50;;;;;;;10.90;6.53;;;1.10;99.90;;;;;;5075846;28;20043;-79
2023/01/20 10:25:27;;;;;;;15.00;7.43;;;1.10;99.90;;;;;;5074130;28;20518;-79
2023/01/20 10:28:14;;;;;;;11.98;7.50;;;1.10;99.90;;;;;;5071851;28;20025;-79
2023/01/20 10:30:41;;;;;;;12.45;7.40;;;1.10;99.90;;;;;;5061515;28;20385;-79
2023/01/20 10:33:13;;;;;;;11.48;7.28;;;1.20;99.90;;;;;;5058130;28;20040;-79
2023/01/20 10:35:45;;;;;;;11.70;6.97;;;1.20;99.90;;;;;;5076769;28;20029;-79
2023/01/20 10:38:35;;;;;;;12.23;6.97;;;1.20;99.90;;;;;;5076057;28;20032;-78
2023/01/20 10:41:19;;;;;;;12.63;6.43;;;1.30;99.90;;;;;;5068942;28;20060;-79
2023/01/20 10:43:46;;;;;;;11.07;6.75;;;1.30;99.90;;;;;;5042404;28;20109;-78
2023/01/20 10:46:37;;;;;;;12.63;7.35;;;1.30;99.90;;;;;;5028390;28;20033;-79
2023/01/20 10:49:25;;;;;;;16.92;7.95;;;1.30;99.90;;;;;;5046571;28;20035;-78
2023/01/20 10:52:01;;;;;;;13.85;7.85;;;1.30;99.90;;;;;;5058647;28;20025;-80
2023/01/20 10:54:45;;;;;;;17.45;8.98;;;1.30;99.90;;;;;;5057377;28;20036;-80
2023/01/20 10:57:14;;;;;;;15.63;8.75;;;1.40;99.90;;;;;;5075649;28;20060;-80
2023/01/20 10:59:52;;;;;;;14.60;9.43;;;1.30;99.90;;;;;;5073545;28;20402;-80
2023/01/20 11:02:36;;;;;;;15.05;8.25;;;1.30;99.90;;;;;;5078326;28;20351;-80
2023/01/20 11:05:13;;;;;;;14.15;9.43;;;1.30;99.90;;;;;;5076247;28;20044;-79
2023/01/20 11:07:39;;;;;;;15.60;9.10;;;1.30;99.90;;;;;;5074881;28;20033;-79
2023/01/20 11:10:23;;;;;;;17.58;10.05;;;1.30;99.90;;;;;;5075960;28;20032;-79
2023/01/20 11:12:53;;;;;;;19.17;9.63;;;1.30;99.90;;;;;;5073773;28;20485;-78
2023/01/20 11:15:36;;;;;;;16.45;9.98;;;1.30;99.90;;;;;;5059946;28;20025;-78
2023/01/20 11:18:14;;;;;;;18.40;10.52;;;1.30;99.90;;;;;;5032445;28;20037;-79
2023/01/20 11:20:55;;;;;;;16.30;10.07;;;1.30;99.90;;;;;;5073730;28;20051;-79
2023/01/20 11:23:40;;;;;;;17.83;10.68;;;1.20;99.90;;;;;;5058064;28;20066;-78
2023/01/20 11:26:31;;;;;;;16.52;9.77;;;1.20;99.90;;;;;;5070508;28;20122;-78
2023/01/20 11:29:09;;;;;;;16.65;9.95;;;1.20;99.90;;;;;;5068058;28;20021;-79
2023/01/20 11:31:51;;;;;;;18.05;10.40;;;1.20;99.90;;;;;;5062187;28;20031;-78
2023/01/20 11:34:32;;;;;;;18.90;10.38;;;1.10;99.90;;;;;;5057838;28;20024;-78
2023/01/20 11:37:05;;;;;;;17.30;9.73;;;1.20;99.90;;;;;;5052096;28;20472;-78
2023/01/20 11:39:43;;;;;;;20.55;11.00;;;1.20;99.90;;;;;;5056146;28;20032;-78
2023/01/20 11:42:40;;;;;;;17.42;9.32;;;1.20;99.90;;;;;;5057488;28;20036;-78
2023/01/20 11:45:21;;;;;;;16.38;9.07;;;1.30;99.90;;;;;;5051446;28;20032;-77
2023/01/20 11:48:13;;;;;;;19.08;10.32;;;1.30;99.90;;;;;;5078561;28;20031;-78
2023/01/20 11:50:54;;;;;;;17.35;9.00;;;1.40;99.90;;;;;;5059860;28;20044;-79
2023/01/20 11:53:24;;;;;;;16.30;9.00;;;1.40;99.90;;;;;;5063927;28;20025;-79
2023/01/20 11:55:54;;;;;;;18.42;9.90;;;1.40;99.90;;;;;;5065794;28;20024;-79
2023/01/20 11:58:57;;;;;;;19.33;9.82;;;1.40;99.90;;;;;;5074890;28;20033;-79
2023/01/20 12:01:28;;;;;;;16.33;9.27;;;1.50;99.90;;;;;;5061192;28;20124;-78
2023/01/20 12:04:03;;;;;;;16.33;8.73;;;1.40;99.90;;;;;;5048368;28;20046;-78
2023/01/20 12:06:37;;;;;;;16.35;9.05;;;1.40;99.90;;;;;;5038843;28;20034;-78
2023/01/20 12:09:11;;;;;;;14.55;8.82;;;1.40;99.90;;;;;;5068593;28;20036;-78
2023/01/20 12:11:49;;;;;;;16.85;8.40;;;1.40;99.90;;;;;;5040394;28;20037;-78
2023/01/20 12:14:30;;;;;;;14.07;8.43;;;1.40;99.90;;;;;;5058164;28;20032;-79
2023/01/20 12:17:20;;;;;;;19.23;8.80;;;1.40;99.90;;;;;;5068650;28;20028;-78
2023/01/20 12:19:52;;;;;;;14.77;8.18;;;1.30;99.90;;;;;;5065410;28;20058;-78
2023/01/20 12:22:54;;;;;;;16.13;7.95;;;1.30;99.90;;;;;;5068456;28;20029;-81
2023/01/20 12:25:47;;;;;;;12.95;7.38;;;1.30;99.90;;;;;;5041681;28;20436;-80
2023/01/20 12:28:51;;;;;;;12.43;7.20;;;1.30;99.90;;;;;;5072252;28;20036;-81
2023/01/20 12:31:19;;;;;;;17.75;9.85;;;1.30;99.90;;;;;;5069833;28;20383;-81
2023/01/20 12:33:53;;;;;;;14.48;8.50;;;1.30;99.90;;;;;;5059238;28;20035;-81
2023/01/20 12:36:34;;;;;;;14.15;8.13;;;1.30;99.90;;;;;;5035376;28;20033;-79
2023/01/20 12:39:18;;;;;;;12.45;7.38;;;1.30;99.90;;;;;;5071317;28;20439;-78
2023/01/20 12:42:09;;;;;;;11.68;6.75;;;1.30;99.90;;;;;;5078578;28;20380;-79
2023/01/20 12:45:02;;;;;;;11.80;7.25;;;1.30;99.90;;;;;;5062229;28;20531;-79
2023/01/20 12:47:57;;;;;;;15.18;7.65;;;1.30;99.90;;;;;;5057319;28;20393;-81
2023/01/20 12:50:36;;;;;;;11.10;6.80;;;1.40;99.90;;;;;;5069752;28;20035;-80
2023/01/20 12:53:20;;;;;;;12.63;7.28;;;1.40;99.90;;;;;;5079076;28;20070;-79
2023/01/20 12:56:31;;;;;;;12.70;7.93;;;1.40;99.90;;;;;;5062584;28;20593;-80
2023/01/20 12:59:05;;;;;;;14.98;7.75;;;1.40;99.90;;;;;;5056081;28;20397;-80
2023/01/20 13:01:50;;;;;;;16.25;8.38;;;1.40;99.90;;;;;;5058759;28;20647;-81
2023/01/20 13:04:24;;;;;;;23.02;11.75;;;1.40;99.90;;;;;;5057868;28;20020;-78
2023/01/20 13:07:23;;;;;;;25.85;13.35;;;1.50;99.90;;;;;;5068861;28;20448;-81